RYR6767 LEPA-EGGD
Flight info
| Callsign | RYR6767 |
|---|---|
| Flight time | N/A |
| Altitude | 38000 |
| Route | DRAGO4A DRAGO DCT PAPOS DCT UMURE DCT XIKEN DCT KARES DCT ARBEK DCT REBUL DCT USKAR DCT MOPAS DCT GIROM DCT GONUP DCT MANAK/N0433F340 DCT MUREL DCT NOZHU/N0447F370 DCT SHIRI DCT TOJAQ TOJAQ1B |
| Aircraft | B38M/M-SDE1FGHILORVWXY/HB1 |
Departure
| Time | 2026-05-03 20:35 |
|---|---|
| Airport | Palma de Mallorca Airport (LEPA) |
Arrival
| Time | N/A |
|---|---|
| Airport | Bristol Airport (EGGD) |
| Time | Latitude | Longitude | Altitude | Speed | Heading |
|---|---|---|---|---|---|
| 2026-05-03 20:15 | 39.55103 | 2.72902 | 32 ft | 1 kts | 166° |
| 2026-05-03 20:22 | 39.55107 | 2.72901 | 32 ft | 2 kts | 166° |
| 2026-05-03 20:22 | 39.55126 | 2.72894 | 32 ft | 3 kts | 158° |
| 2026-05-03 20:23 | 39.55143 | 2.72882 | 32 ft | 3 kts | 144° |
| 2026-05-03 20:23 | 39.55157 | 2.72865 | 32 ft | 3 kts | 116° |
| 2026-05-03 20:23 | 39.55160 | 2.72847 | 32 ft | 2 kts | 66° |
| 2026-05-03 20:23 | 39.55158 | 2.72843 | 32 ft | 1 kts | 58° |
| 2026-05-03 20:26 | 39.55159 | 2.72845 | 32 ft | 2 kts | 58° |
| 2026-05-03 20:26 | 39.55181 | 2.72890 | 32 ft | 8 kts | 58° |
| 2026-05-03 20:26 | 39.55213 | 2.72959 | 32 ft | 10 kts | 59° |
| 2026-05-03 20:27 | 39.55253 | 2.73043 | 32 ft | 12 kts | 58° |
| 2026-05-03 20:27 | 39.55299 | 2.73138 | 32 ft | 13 kts | 58° |
| 2026-05-03 20:27 | 39.55350 | 2.73245 | 32 ft | 15 kts | 58° |
| 2026-05-03 20:27 | 39.55405 | 2.73362 | 32 ft | 16 kts | 58° |
| 2026-05-03 20:28 | 39.55467 | 2.73491 | 32 ft | 17 kts | 58° |
| 2026-05-03 20:28 | 39.55508 | 2.73572 | 32 ft | 6 kts | 42° |
| 2026-05-03 20:28 | 39.55520 | 2.73576 | 32 ft | 4 kts | 9° |
| 2026-05-03 20:28 | 39.55562 | 2.73555 | 32 ft | 9 kts | 321° |
| 2026-05-03 20:29 | 39.55632 | 2.73499 | 32 ft | 1 kts | 349° |
| 2026-05-03 20:29 | 39.55660 | 2.73519 | 32 ft | 12 kts | 41° |
| 2026-05-03 20:29 | 39.55724 | 2.73646 | 32 ft | 20 kts | 58° |
| 2026-05-03 20:29 | 39.55786 | 2.73776 | 32 ft | 17 kts | 58° |
| 2026-05-03 20:30 | 39.55852 | 2.73915 | 32 ft | 19 kts | 58° |
| 2026-05-03 20:30 | 39.55922 | 2.74064 | 32 ft | 20 kts | 58° |
| 2026-05-03 20:30 | 39.55997 | 2.74221 | 32 ft | 21 kts | 58° |
| 2026-05-03 20:30 | 39.56074 | 2.74382 | 32 ft | 16 kts | 58° |
| 2026-05-03 20:31 | 39.56131 | 2.74451 | 32 ft | 5 kts | 17° |
| 2026-05-03 20:31 | 39.56137 | 2.74454 | 32 ft | 2 kts | 15° |
| 2026-05-03 20:31 | 39.56144 | 2.74456 | 32 ft | 0 kts | 15° |
| 2026-05-03 20:32 | 39.56152 | 2.74456 | 32 ft | 3 kts | 352° |
| 2026-05-03 20:32 | 39.56168 | 2.74448 | 32 ft | 0 kts | 333° |
| 2026-05-03 20:33 | 39.56173 | 2.74445 | 32 ft | 5 kts | 332° |
| 2026-05-03 20:33 | 39.56240 | 2.74385 | 32 ft | 16 kts | 310° |
| 2026-05-03 20:33 | 39.56232 | 2.74271 | 32 ft | 1 kts | 238° |
| 2026-05-03 20:33 | 39.56226 | 2.74259 | 32 ft | 0 kts | 240° |
| 2026-05-03 20:34 | 39.56224 | 2.74253 | 32 ft | 6 kts | 240° |
| 2026-05-03 20:34 | 39.56108 | 2.74006 | 32 ft | 68 kts | 239° |
| 2026-05-03 20:34 | 39.55722 | 2.73191 | 32 ft | 141 kts | 238° |
| 2026-05-03 20:34 | 39.55114 | 2.71930 | 271 ft | 174 kts | 237° |
| 2026-05-03 20:35 | 39.54434 | 2.70555 | 972 ft | 183 kts | 236° |
| 2026-05-03 20:35 | 39.53999 | 2.69628 | 1723 ft | 174 kts | 236° |
| 2026-05-03 20:35 | 39.53192 | 2.67817 | 2796 ft | 179 kts | 238° |
| 2026-05-03 20:35 | 39.52774 | 2.66877 | 3379 ft | 175 kts | 238° |
| 2026-05-03 20:36 | 39.51960 | 2.65093 | 4470 ft | 175 kts | 238° |
| 2026-05-03 20:36 | 39.51529 | 2.64179 | 4988 ft | 176 kts | 238° |
| 2026-05-03 20:36 | 39.50887 | 2.62834 | 5740 ft | 176 kts | 238° |
| 2026-05-03 20:36 | 39.50235 | 2.61495 | 6489 ft | 176 kts | 238° |
| 2026-05-03 20:37 | 39.49578 | 2.60155 | 7170 ft | 177 kts | 237° |
| 2026-05-03 20:37 | 39.48806 | 2.58819 | 7568 ft | 195 kts | 233° |
| 2026-05-03 20:37 | 39.47946 | 2.57339 | 7887 ft | 216 kts | 234° |
| 2026-05-03 20:37 | 39.47029 | 2.55684 | 8205 ft | 236 kts | 236° |
| 2026-05-03 20:38 | 39.46068 | 2.53894 | 8790 ft | 245 kts | 236° |
| 2026-05-03 20:38 | 39.45187 | 2.52014 | 9647 ft | 250 kts | 248° |
| 2026-05-03 20:38 | 39.44908 | 2.49735 | 10094 ft | 269 kts | 274° |
| 2026-05-03 20:38 | 39.45459 | 2.47375 | 10538 ft | 292 kts | 295° |
| 2026-05-03 20:39 | 39.46854 | 2.45353 | 11038 ft | 316 kts | 321° |
| 2026-05-03 20:39 | 39.48802 | 2.43974 | 11668 ft | 325 kts | 326° |
| 2026-05-03 20:39 | 39.50802 | 2.42543 | 12436 ft | 327 kts | 326° |
| 2026-05-03 20:39 | 39.52805 | 2.41112 | 13159 ft | 332 kts | 326° |
| 2026-05-03 20:40 | 39.54806 | 2.39589 | 13872 ft | 331 kts | 316° |
| 2026-05-03 20:40 | 39.56430 | 2.37521 | 14489 ft | 330 kts | 309° |
| 2026-05-03 20:40 | 39.58021 | 2.35380 | 15096 ft | 334 kts | 309° |
| 2026-05-03 20:40 | 39.59632 | 2.33198 | 15721 ft | 337 kts | 309° |
| 2026-05-03 20:41 | 39.61277 | 2.30960 | 16329 ft | 341 kts | 309° |
| 2026-05-03 20:41 | 39.62908 | 2.28733 | 16927 ft | 344 kts | 309° |
| 2026-05-03 20:41 | 39.64562 | 2.26475 | 17511 ft | 347 kts | 309° |
| 2026-05-03 20:41 | 39.66226 | 2.24200 | 18087 ft | 350 kts | 309° |
| 2026-05-03 20:42 | 39.67911 | 2.21896 | 18590 ft | 353 kts | 309° |
| 2026-05-03 20:42 | 39.69596 | 2.19587 | 19076 ft | 356 kts | 309° |
| 2026-05-03 20:42 | 39.71334 | 2.17207 | 19553 ft | 360 kts | 309° |
| 2026-05-03 20:42 | 39.73061 | 2.14838 | 20019 ft | 363 kts | 309° |
| 2026-05-03 20:43 | 39.74804 | 2.12446 | 20484 ft | 366 kts | 309° |
| 2026-05-03 20:43 | 39.76554 | 2.10042 | 20941 ft | 369 kts | 308° |
| 2026-05-03 20:43 | 39.78322 | 2.07609 | 21405 ft | 372 kts | 309° |
| 2026-05-03 20:43 | 39.79530 | 2.05947 | 21717 ft | 374 kts | 309° |